BMA weather

Stockholm-Bromma Airport
Stockholm, Stockholms län, Sweden

Public forecast

Using degrees Celsius for public forecast. Weather courtesy of forecast.io.

METAR (pilot weather report)

Retrieved 2019/05/25 21:20 UTC (5 minutes ago):

ESSB 252120Z AUTO 15004KT 110V170 9999 -RA FEW040/// SCT059/// 11/09 Q1003

TAF (pilot weather forecast)

Forecast is more than 12 hours old.

Retrieved 2017/03/27 06:35 UTC (2 years ago):

TAF ESSB 270530Z 2706/2724 27008KT CAVOK BECMG 2710/2713 29015G25KT